sensor_id;sensor_type;location;lat;lon;timestamp;temperature;humidity
1766;DHT22;880;52.452;8.656;2023-12-20T00:02:17;7.10;99.90
1766;DHT22;880;52.452;8.656;2023-12-20T00:04:44;7.10;99.90
1766;DHT22;880;52.452;8.656;2023-12-20T00:07:11;7.10;99.90
1766;DHT22;880;52.452;8.656;2023-12-20T00:09:39;7.10;99.90
1766;DHT22;880;52.452;8.656;2023-12-20T00:12:06;7.10;99.90
1766;DHT22;880;52.452;8.656;2023-12-20T00:14:33;7.10;99.90
1766;DHT22;880;52.452;8.656;2023-12-20T00:17:00;7.10;99.90
1766;DHT22;880;52.452;8.656;2023-12-20T00:19:27;7.00;99.90
1766;DHT22;880;52.452;8.656;2023-12-20T00:21:54;7.00;99.90
1766;DHT22;880;52.452;8.656;2023-12-20T00:24:21;7.00;99.90
1766;DHT22;880;52.452;8.656;2023-12-20T00:26:48;7.00;99.90
1766;DHT22;880;52.452;8.656;2023-12-20T00:29:15;7.00;99.90
1766;DHT22;880;52.452;8.656;2023-12-20T00:31:42;7.00;99.90
1766;DHT22;880;52.452;8.656;2023-12-20T00:34:09;7.00;99.90
1766;DHT22;880;52.452;8.656;2023-12-20T00:36:37;6.90;99.90
1766;DHT22;880;52.452;8.656;2023-12-20T00:39:04;6.90;99.90
1766;DHT22;880;52.452;8.656;2023-12-20T00:41:31;6.90;99.90
1766;DHT22;880;52.452;8.656;2023-12-20T00:43:58;6.90;99.90
1766;DHT22;880;52.452;8.656;2023-12-20T00:46:25;6.90;99.90
1766;DHT22;880;52.452;8.656;2023-12-20T00:48:52;6.90;99.90
1766;DHT22;880;52.452;8.656;2023-12-20T00:51:19;6.90;99.90
1766;DHT22;880;52.452;8.656;2023-12-20T00:53:47;6.90;99.90
1766;DHT22;880;52.452;8.656;2023-12-20T00:56:16;6.90;99.90
1766;DHT22;880;52.452;8.656;2023-12-20T00:58:43;6.90;99.90
1766;DHT22;880;52.452;8.656;2023-12-20T01:01:10;6.80;99.90
1766;DHT22;880;52.452;8.656;2023-12-20T01:03:37;6.80;99.90
1766;DHT22;880;52.452;8.656;2023-12-20T01:06:05;6.70;99.90
1766;DHT22;880;52.452;8.656;2023-12-20T01:08:32;6.70;99.90
1766;DHT22;880;52.452;8.656;2023-12-20T01:11:04;6.70;99.90
1766;DHT22;880;52.452;8.656;2023-12-20T01:13:32;6.70;99.90
1766;DHT22;880;52.452;8.656;2023-12-20T01:15:59;6.70;99.90
1766;DHT22;880;52.452;8.656;2023-12-20T01:18:26;6.60;99.90
1766;DHT22;880;52.452;8.656;2023-12-20T01:20:53;6.70;99.90
1766;DHT22;880;52.452;8.656;2023-12-20T01:23:20;6.70;99.90
1766;DHT22;880;52.452;8.656;2023-12-20T01:25:48;6.70;99.90
1766;DHT22;880;52.452;8.656;2023-12-20T01:28:15;6.60;99.90
1766;DHT22;880;52.452;8.656;2023-12-20T01:30:42;6.60;99.90
1766;DHT22;880;52.452;8.656;2023-12-20T01:33:09;6.60;99.90
1766;DHT22;880;52.452;8.656;2023-12-20T01:35:36;6.50;99.90
1766;DHT22;880;52.452;8.656;2023-12-20T01:38:04;6.60;99.90
1766;DHT22;880;52.452;8.656;2023-12-20T01:40:31;6.50;99.90
1766;DHT22;880;52.452;8.656;2023-12-20T01:43:02;6.50;99.90
1766;DHT22;880;52.452;8.656;2023-12-20T01:45:35;6.50;99.90
1766;DHT22;880;52.452;8.656;2023-12-20T01:48:04;6.50;99.90
1766;DHT22;880;52.452;8.656;2023-12-20T01:50:32;6.50;99.90
1766;DHT22;880;52.452;8.656;2023-12-20T01:53:02;6.40;99.90
1766;DHT22;880;52.452;8.656;2023-12-20T01:55:33;6.40;99.90
1766;DHT22;880;52.452;8.656;2023-12-20T01:58:01;6.40;99.90
1766;DHT22;880;52.452;8.656;2023-12-20T02:00:29;6.40;99.90
1766;DHT22;880;52.452;8.656;2023-12-20T02:03:00;6.30;99.90
1766;DHT22;880;52.452;8.656;2023-12-20T02:05:30;6.30;99.90
1766;DHT22;880;52.452;8.656;2023-12-20T02:07:57;6.30;99.90
1766;DHT22;880;52.452;8.656;2023-12-20T02:10:25;6.30;99.90
1766;DHT22;880;52.452;8.656;2023-12-20T02:12:52;6.30;99.90
1766;DHT22;880;52.452;8.656;2023-12-20T02:15:19;6.30;99.90
1766;DHT22;880;52.452;8.656;2023-12-20T02:17:47;6.30;99.90
1766;DHT22;880;52.452;8.656;2023-12-20T02:20:15;6.20;99.90
1766;DHT22;880;52.452;8.656;2023-12-20T02:22:42;6.20;99.90
1766;DHT22;880;52.452;8.656;2023-12-20T02:25:09;6.10;99.90
1766;DHT22;880;52.452;8.656;2023-12-20T02:27:36;6.10;99.90
1766;DHT22;880;52.452;8.656;2023-12-20T02:30:04;6.10;99.90
1766;DHT22;880;52.452;8.656;2023-12-20T02:32:32;6.10;99.90
1766;DHT22;880;52.452;8.656;2023-12-20T02:34:59;6.10;99.90
1766;DHT22;880;52.452;8.656;2023-12-20T02:37:26;6.00;99.90
1766;DHT22;880;52.452;8.656;2023-12-20T02:39:53;6.00;99.90
1766;DHT22;880;52.452;8.656;2023-12-20T02:42:20;6.00;99.90
1766;DHT22;880;52.452;8.656;2023-12-20T02:44:47;6.00;99.90
1766;DHT22;880;52.452;8.656;2023-12-20T02:47:14;6.00;99.90
1766;DHT22;880;52.452;8.656;2023-12-20T02:49:41;6.10;99.90
1766;DHT22;880;52.452;8.656;2023-12-20T02:52:08;6.10;99.90
1766;DHT22;880;52.452;8.656;2023-12-20T02:54:35;6.10;99.90
1766;DHT22;880;52.452;8.656;2023-12-20T02:57:02;6.10;99.90
1766;DHT22;880;52.452;8.656;2023-12-20T02:59:29;6.10;99.90
1766;DHT22;880;52.452;8.656;2023-12-20T03:01:56;6.10;99.90
1766;DHT22;880;52.452;8.656;2023-12-20T03:04:23;6.10;99.90
1766;DHT22;880;52.452;8.656;2023-12-20T03:06:51;6.10;99.90
1766;DHT22;880;52.452;8.656;2023-12-20T03:09:18;6.10;99.90
1766;DHT22;880;52.452;8.656;2023-12-20T03:11:47;6.10;99.90
1766;DHT22;880;52.452;8.656;2023-12-20T03:14:15;6.10;99.90
1766;DHT22;880;52.452;8.656;2023-12-20T03:16:42;6.20;99.90
1766;DHT22;880;52.452;8.656;2023-12-20T03:19:13;6.20;99.90
1766;DHT22;880;52.452;8.656;2023-12-20T03:21:41;6.30;99.90
1766;DHT22;880;52.452;8.656;2023-12-20T03:24:08;6.30;99.90
1766;DHT22;880;52.452;8.656;2023-12-20T03:26:35;6.20;99.90
1766;DHT22;880;52.452;8.656;2023-12-20T03:29:02;6.30;99.90
1766;DHT22;880;52.452;8.656;2023-12-20T03:31:29;6.30;99.90
1766;DHT22;880;52.452;8.656;2023-12-20T03:33:56;6.30;99.90
1766;DHT22;880;52.452;8.656;2023-12-20T03:36:23;6.30;99.90
1766;DHT22;880;52.452;8.656;2023-12-20T03:38:50;6.20;99.90
1766;DHT22;880;52.452;8.656;2023-12-20T03:41:17;6.30;99.90
1766;DHT22;880;52.452;8.656;2023-12-20T03:43:44;6.30;99.90
1766;DHT22;880;52.452;8.656;2023-12-20T03:46:11;6.20;99.90
1766;DHT22;880;52.452;8.656;2023-12-20T03:48:38;6.30;99.90
1766;DHT22;880;52.452;8.656;2023-12-20T03:51:05;6.30;99.90
1766;DHT22;880;52.452;8.656;2023-12-20T03:53:32;6.40;99.90
1766;DHT22;880;52.452;8.656;2023-12-20T03:55:59;6.30;99.90
1766;DHT22;880;52.452;8.656;2023-12-20T03:58:27;6.40;99.90
1766;DHT22;880;52.452;8.656;2023-12-20T04:00:54;6.40;99.90
1766;DHT22;880;52.452;8.656;2023-12-20T04:03:21;6.50;99.90
1766;DHT22;880;52.452;8.656;2023-12-20T04:05:48;6.40;99.90
1766;DHT22;880;52.452;8.656;2023-12-20T04:08:15;6.40;99.90
1766;DHT22;880;52.452;8.656;2023-12-20T04:10:42;6.40;99.90
1766;DHT22;880;52.452;8.656;2023-12-20T04:13:09;6.40;99.90
1766;DHT22;880;52.452;8.656;2023-12-20T04:15:36;6.40;99.90
1766;DHT22;880;52.452;8.656;2023-12-20T04:18:03;6.40;99.90
1766;DHT22;880;52.452;8.656;2023-12-20T04:20:30;6.40;99.90
1766;DHT22;880;52.452;8.656;2023-12-20T04:22:57;6.50;99.90
1766;DHT22;880;52.452;8.656;2023-12-20T04:25:25;6.40;99.90
1766;DHT22;880;52.452;8.656;2023-12-20T04:27:52;6.40;99.90
1766;DHT22;880;52.452;8.656;2023-12-20T04:30:19;6.50;99.90
1766;DHT22;880;52.452;8.656;2023-12-20T04:32:46;6.50;99.90
1766;DHT22;880;52.452;8.656;2023-12-20T04:35:13;6.50;99.90
1766;DHT22;880;52.452;8.656;2023-12-20T04:37:41;6.50;99.90
1766;DHT22;880;52.452;8.656;2023-12-20T04:40:08;6.50;99.90
1766;DHT22;880;52.452;8.656;2023-12-20T04:42:35;6.50;99.90
1766;DHT22;880;52.452;8.656;2023-12-20T04:45:03;6.50;99.90
1766;DHT22;880;52.452;8.656;2023-12-20T04:47:30;6.60;99.90
1766;DHT22;880;52.452;8.656;2023-12-20T04:49:57;6.60;99.90
1766;DHT22;880;52.452;8.656;2023-12-20T04:52:25;6.60;99.90
1766;DHT22;880;52.452;8.656;2023-12-20T04:54:52;6.60;99.90
1766;DHT22;880;52.452;8.656;2023-12-20T04:57:19;6.60;99.90
1766;DHT22;880;52.452;8.656;2023-12-20T04:59:46;6.60;99.90
1766;DHT22;880;52.452;8.656;2023-12-20T05:02:13;6.50;99.90
1766;DHT22;880;52.452;8.656;2023-12-20T05:04:40;6.60;99.90
1766;DHT22;880;52.452;8.656;2023-12-20T05:07:08;6.60;99.90
1766;DHT22;880;52.452;8.656;2023-12-20T05:09:35;6.50;99.90
1766;DHT22;880;52.452;8.656;2023-12-20T05:12:02;6.40;99.90
1766;DHT22;880;52.452;8.656;2023-12-20T05:14:29;6.50;99.90
1766;DHT22;880;52.452;8.656;2023-12-20T05:16:57;6.50;99.90
1766;DHT22;880;52.452;8.656;2023-12-20T05:19:24;6.50;99.90
1766;DHT22;880;52.452;8.656;2023-12-20T05:21:51;6.40;99.90
1766;DHT22;880;52.452;8.656;2023-12-20T05:24:18;6.40;99.90
1766;DHT22;880;52.452;8.656;2023-12-20T05:26:45;6.40;99.90
1766;DHT22;880;52.452;8.656;2023-12-20T05:29:15;6.50;99.90
1766;DHT22;880;52.452;8.656;2023-12-20T05:31:43;6.50;99.90
1766;DHT22;880;52.452;8.656;2023-12-20T05:34:10;6.40;99.90
1766;DHT22;880;52.452;8.656;2023-12-20T05:36:37;6.50;99.90
1766;DHT22;880;52.452;8.656;2023-12-20T05:39:05;6.50;99.90
1766;DHT22;880;52.452;8.656;2023-12-20T05:41:34;6.40;99.90
1766;DHT22;880;52.452;8.656;2023-12-20T05:44:01;6.40;99.90
1766;DHT22;880;52.452;8.656;2023-12-20T05:46:28;6.50;99.90
1766;DHT22;880;52.452;8.656;2023-12-20T05:48:56;6.50;99.90
1766;DHT22;880;52.452;8.656;2023-12-20T05:51:23;6.50;99.90
1766;DHT22;880;52.452;8.656;2023-12-20T05:53:50;6.40;99.90
1766;DHT22;880;52.452;8.656;2023-12-20T05:56:17;6.50;99.90
1766;DHT22;880;52.452;8.656;2023-12-20T05:58:44;6.40;99.90
1766;DHT22;880;52.452;8.656;2023-12-20T06:01:11;6.40;99.90
1766;DHT22;880;52.452;8.656;2023-12-20T06:03:41;6.50;99.90
1766;DHT22;880;52.452;8.656;2023-12-20T06:06:09;6.50;99.90
1766;DHT22;880;52.452;8.656;2023-12-20T06:08:42;6.60;99.90
1766;DHT22;880;52.452;8.656;2023-12-20T06:11:10;6.60;99.90
1766;DHT22;880;52.452;8.656;2023-12-20T06:13:38;6.70;99.90
1766;DHT22;880;52.452;8.656;2023-12-20T06:16:06;6.60;99.90
1766;DHT22;880;52.452;8.656;2023-12-20T06:18:36;6.70;99.90
1766;DHT22;880;52.452;8.656;2023-12-20T06:21:04;6.70;99.90
1766;DHT22;880;52.452;8.656;2023-12-20T06:23:31;6.70;99.90
1766;DHT22;880;52.452;8.656;2023-12-20T06:25:58;6.70;99.90
1766;DHT22;880;52.452;8.656;2023-12-20T06:28:25;6.70;99.90
1766;DHT22;880;52.452;8.656;2023-12-20T06:30:52;6.70;99.90
1766;DHT22;880;52.452;8.656;2023-12-20T06:33:21;6.70;99.90
1766;DHT22;880;52.452;8.656;2023-12-20T06:35:49;6.70;99.90
1766;DHT22;880;52.452;8.656;2023-12-20T06:38:18;6.70;99.90
1766;DHT22;880;52.452;8.656;2023-12-20T06:40:45;6.80;99.90
1766;DHT22;880;52.452;8.656;2023-12-20T06:43:13;6.80;99.90
1766;DHT22;880;52.452;8.656;2023-12-20T06:45:58;6.80;99.90
1766;DHT22;880;52.452;8.656;2023-12-20T06:48:26;6.80;99.90
1766;DHT22;880;52.452;8.656;2023-12-20T06:50:54;6.80;99.90
1766;DHT22;880;52.452;8.656;2023-12-20T06:53:21;6.80;99.90
1766;DHT22;880;52.452;8.656;2023-12-20T06:55:48;6.80;99.90
1766;DHT22;880;52.452;8.656;2023-12-20T06:58:15;6.80;99.90
1766;DHT22;880;52.452;8.656;2023-12-20T07:00:42;6.70;99.90
1766;DHT22;880;52.452;8.656;2023-12-20T07:03:09;6.70;99.90
1766;DHT22;880;52.452;8.656;2023-12-20T07:05:36;6.70;99.90
1766;DHT22;880;52.452;8.656;2023-12-20T07:08:04;6.80;99.90
1766;DHT22;880;52.452;8.656;2023-12-20T07:10:32;6.80;99.90
1766;DHT22;880;52.452;8.656;2023-12-20T07:12:59;6.70;99.90
1766;DHT22;880;52.452;8.656;2023-12-20T07:15:26;6.70;99.90
1766;DHT22;880;52.452;8.656;2023-12-20T07:17:53;6.70;99.90
1766;DHT22;880;52.452;8.656;2023-12-20T07:20:21;6.70;99.90
1766;DHT22;880;52.452;8.656;2023-12-20T07:22:48;6.70;99.90
1766;DHT22;880;52.452;8.656;2023-12-20T07:25:15;6.60;99.90
1766;DHT22;880;52.452;8.656;2023-12-20T07:27:42;6.60;99.90
1766;DHT22;880;52.452;8.656;2023-12-20T07:30:11;6.70;99.90
1766;DHT22;880;52.452;8.656;2023-12-20T07:32:38;6.60;99.90
1766;DHT22;880;52.452;8.656;2023-12-20T07:35:06;6.70;99.90
1766;DHT22;880;52.452;8.656;2023-12-20T07:37:33;6.70;99.90
1766;DHT22;880;52.452;8.656;2023-12-20T07:40:00;6.70;99.90
1766;DHT22;880;52.452;8.656;2023-12-20T07:42:27;6.70;99.90
1766;DHT22;880;52.452;8.656;2023-12-20T07:44:55;6.70;99.90
1766;DHT22;880;52.452;8.656;2023-12-20T07:47:22;6.70;99.90
1766;DHT22;880;52.452;8.656;2023-12-20T07:49:49;6.70;99.90
1766;DHT22;880;52.452;8.656;2023-12-20T07:52:18;6.70;99.90
1766;DHT22;880;52.452;8.656;2023-12-20T07:54:46;6.70;99.90
1766;DHT22;880;52.452;8.656;2023-12-20T07:57:13;6.70;99.90
1766;DHT22;880;52.452;8.656;2023-12-20T07:59:40;6.70;99.90
1766;DHT22;880;52.452;8.656;2023-12-20T08:02:07;6.70;99.90
1766;DHT22;880;52.452;8.656;2023-12-20T08:04:34;6.70;99.90
1766;DHT22;880;52.452;8.656;2023-12-20T08:07:01;6.70;99.90
1766;DHT22;880;52.452;8.656;2023-12-20T08:09:28;6.80;99.90
1766;DHT22;880;52.452;8.656;2023-12-20T08:11:55;6.80;99.90
1766;DHT22;880;52.452;8.656;2023-12-20T08:14:22;6.80;99.90
1766;DHT22;880;52.452;8.656;2023-12-20T08:16:49;6.80;99.90
1766;DHT22;880;52.452;8.656;2023-12-20T08:19:16;6.80;99.90
1766;DHT22;880;52.452;8.656;2023-12-20T08:21:43;6.90;99.90
1766;DHT22;880;52.452;8.656;2023-12-20T08:24:11;6.90;99.90
1766;DHT22;880;52.452;8.656;2023-12-20T08:26:38;6.90;99.90
1766;DHT22;880;52.452;8.656;2023-12-20T08:29:05;6.90;99.90
1766;DHT22;880;52.452;8.656;2023-12-20T08:31:32;6.90;99.90
1766;DHT22;880;52.452;8.656;2023-12-20T08:33:59;6.90;99.90
1766;DHT22;880;52.452;8.656;2023-12-20T08:36:26;7.00;99.90
1766;DHT22;880;52.452;8.656;2023-12-20T08:38:53;6.90;99.90
1766;DHT22;880;52.452;8.656;2023-12-20T08:41:21;7.00;99.90
1766;DHT22;880;52.452;8.656;2023-12-20T08:43:48;6.90;99.90
1766;DHT22;880;52.452;8.656;2023-12-20T08:46:16;7.00;99.90
1766;DHT22;880;52.452;8.656;2023-12-20T08:48:43;7.00;99.90
1766;DHT22;880;52.452;8.656;2023-12-20T08:51:10;7.00;99.90
1766;DHT22;880;52.452;8.656;2023-12-20T08:53:37;7.10;99.90
1766;DHT22;880;52.452;8.656;2023-12-20T08:56:05;7.10;99.90
1766;DHT22;880;52.452;8.656;2023-12-20T08:58:32;7.10;99.90
1766;DHT22;880;52.452;8.656;2023-12-20T09:01:00;7.10;99.90
1766;DHT22;880;52.452;8.656;2023-12-20T09:03:27;7.10;99.90
1766;DHT22;880;52.452;8.656;2023-12-20T09:05:54;7.10;99.90
1766;DHT22;880;52.452;8.656;2023-12-20T09:08:21;7.10;99.90
1766;DHT22;880;52.452;8.656;2023-12-20T09:10:48;7.10;99.90
1766;DHT22;880;52.452;8.656;2023-12-20T09:13:15;7.20;99.90
1766;DHT22;880;52.452;8.656;2023-12-20T09:15:43;7.20;99.90
1766;DHT22;880;52.452;8.656;2023-12-20T09:18:10;7.30;99.90
1766;DHT22;880;52.452;8.656;2023-12-20T09:20:37;7.30;99.90
1766;DHT22;880;52.452;8.656;2023-12-20T09:23:09;7.20;99.90
1766;DHT22;880;52.452;8.656;2023-12-20T09:25:36;7.20;99.90
1766;DHT22;880;52.452;8.656;2023-12-20T09:28:03;7.20;99.90
1766;DHT22;880;52.452;8.656;2023-12-20T09:30:30;7.30;99.90
1766;DHT22;880;52.452;8.656;2023-12-20T09:32:58;7.20;99.90
1766;DHT22;880;52.452;8.656;2023-12-20T09:35:25;7.30;99.90
1766;DHT22;880;52.452;8.656;2023-12-20T09:37:53;7.30;99.90
1766;DHT22;880;52.452;8.656;2023-12-20T09:40:20;7.30;99.90
1766;DHT22;880;52.452;8.656;2023-12-20T09:42:58;7.30;99.90
1766;DHT22;880;52.452;8.656;2023-12-20T09:45:31;7.20;99.90
1766;DHT22;880;52.452;8.656;2023-12-20T09:47:58;7.20;99.90
1766;DHT22;880;52.452;8.656;2023-12-20T09:50:26;7.20;99.90
1766;DHT22;880;52.452;8.656;2023-12-20T09:52:54;7.30;99.90
1766;DHT22;880;52.452;8.656;2023-12-20T09:55:25;7.30;99.90
1766;DHT22;880;52.452;8.656;2023-12-20T09:57:52;7.30;99.90
1766;DHT22;880;52.452;8.656;2023-12-20T10:00:19;7.30;99.90
1766;DHT22;880;52.452;8.656;2023-12-20T10:02:50;7.40;99.90
1766;DHT22;880;52.452;8.656;2023-12-20T10:05:29;7.40;99.90
1766;DHT22;880;52.452;8.656;2023-12-20T10:08:00;7.40;99.90
1766;DHT22;880;52.452;8.656;2023-12-20T10:10:29;7.40;99.90
1766;DHT22;880;52.452;8.656;2023-12-20T10:13:12;7.50;99.90
1766;DHT22;880;52.452;8.656;2023-12-20T10:15:40;7.40;99.90
1766;DHT22;880;52.452;8.656;2023-12-20T10:18:09;7.40;99.90
1766;DHT22;880;52.452;8.656;2023-12-20T10:20:36;7.50;99.90
1766;DHT22;880;52.452;8.656;2023-12-20T10:23:03;7.50;99.90
1766;DHT22;880;52.452;8.656;2023-12-20T10:25:30;7.50;99.90
1766;DHT22;880;52.452;8.656;2023-12-20T10:28:13;7.40;99.90
1766;DHT22;880;52.452;8.656;2023-12-20T10:30:41;7.50;99.90
1766;DHT22;880;52.452;8.656;2023-12-20T10:33:10;7.50;99.90
1766;DHT22;880;52.452;8.656;2023-12-20T10:35:39;7.60;99.90
1766;DHT22;880;52.452;8.656;2023-12-20T10:38:12;7.50;99.90
1766;DHT22;880;52.452;8.656;2023-12-20T10:40:42;7.50;99.90
1766;DHT22;880;52.452;8.656;2023-12-20T10:43:10;7.50;99.90
1766;DHT22;880;52.452;8.656;2023-12-20T10:45:38;7.50;99.90
1766;DHT22;880;52.452;8.656;2023-12-20T10:48:05;7.50;99.90
1766;DHT22;880;52.452;8.656;2023-12-20T10:50:33;7.60;99.90
1766;DHT22;880;52.452;8.656;2023-12-20T10:53:03;7.60;99.90
1766;DHT22;880;52.452;8.656;2023-12-20T10:55:30;7.70;99.90
1766;DHT22;880;52.452;8.656;2023-12-20T10:58:01;7.80;99.90
1766;DHT22;880;52.452;8.656;2023-12-20T11:00:32;7.80;99.90
1766;DHT22;880;52.452;8.656;2023-12-20T11:03:01;7.90;99.90
1766;DHT22;880;52.452;8.656;2023-12-20T11:08:44;8.00;99.90
1766;DHT22;880;52.452;8.656;2023-12-20T11:14:06;8.00;99.90
1766;DHT22;880;52.452;8.656;2023-12-20T11:16:38;7.90;99.90
1766;DHT22;880;52.452;8.656;2023-12-20T11:19:18;7.70;99.90
1766;DHT22;880;52.452;8.656;2023-12-20T11:21:46;7.00;99.90
1766;DHT22;880;52.452;8.656;2023-12-20T11:24:15;6.70;99.90
1766;DHT22;880;52.452;8.656;2023-12-20T11:26:47;6.50;99.90
1766;DHT22;880;52.452;8.656;2023-12-20T11:29:35;6.30;99.90
1766;DHT22;880;52.452;8.656;2023-12-20T11:32:03;6.40;99.90
1766;DHT22;880;52.452;8.656;2023-12-20T11:34:33;6.30;99.90
1766;DHT22;880;52.452;8.656;2023-12-20T11:37:02;6.30;99.90
1766;DHT22;880;52.452;8.656;2023-12-20T11:39:30;6.10;99.90
1766;DHT22;880;52.452;8.656;2023-12-20T11:42:04;6.00;99.90
1766;DHT22;880;52.452;8.656;2023-12-20T11:44:33;5.90;99.90
1766;DHT22;880;52.452;8.656;2023-12-20T11:47:00;5.90;99.90
1766;DHT22;880;52.452;8.656;2023-12-20T11:49:27;5.80;99.90
1766;DHT22;880;52.452;8.656;2023-12-20T11:51:56;5.80;99.90
1766;DHT22;880;52.452;8.656;2023-12-20T11:54:23;5.90;99.90
1766;DHT22;880;52.452;8.656;2023-12-20T11:56:50;5.90;99.90
1766;DHT22;880;52.452;8.656;2023-12-20T11:59:17;5.90;99.90
1766;DHT22;880;52.452;8.656;2023-12-20T12:01:50;6.00;99.90
1766;DHT22;880;52.452;8.656;2023-12-20T12:04:18;6.00;99.90
1766;DHT22;880;52.452;8.656;2023-12-20T12:06:46;6.00;99.90
1766;DHT22;880;52.452;8.656;2023-12-20T12:09:13;6.00;99.90
1766;DHT22;880;52.452;8.656;2023-12-20T12:11:42;6.10;99.90
1766;DHT22;880;52.452;8.656;2023-12-20T12:14:09;6.00;99.90
1766;DHT22;880;52.452;8.656;2023-12-20T12:16:37;6.10;99.90
1766;DHT22;880;52.452;8.656;2023-12-20T12:19:04;6.20;99.90
1766;DHT22;880;52.452;8.656;2023-12-20T12:21:31;6.30;99.90
1766;DHT22;880;52.452;8.656;2023-12-20T12:24:09;6.50;99.90
1766;DHT22;880;52.452;8.656;2023-12-20T12:26:37;6.50;99.90
1766;DHT22;880;52.452;8.656;2023-12-20T12:29:07;6.70;99.90
1766;DHT22;880;52.452;8.656;2023-12-20T12:31:34;6.80;99.90
1766;DHT22;880;52.452;8.656;2023-12-20T12:34:01;7.00;99.90
1766;DHT22;880;52.452;8.656;2023-12-20T12:36:29;7.00;99.90
1766;DHT22;880;52.452;8.656;2023-12-20T12:38:57;7.00;99.90
1766;DHT22;880;52.452;8.656;2023-12-20T12:41:24;7.00;99.90
1766;DHT22;880;52.452;8.656;2023-12-20T12:43:51;7.10;99.90
1766;DHT22;880;52.452;8.656;2023-12-20T12:46:19;7.10;99.90
1766;DHT22;880;52.452;8.656;2023-12-20T12:48:47;7.10;99.90
1766;DHT22;880;52.452;8.656;2023-12-20T12:51:14;7.10;99.90
1766;DHT22;880;52.452;8.656;2023-12-20T12:53:41;7.10;99.90
1766;DHT22;880;52.452;8.656;2023-12-20T12:56:09;7.20;99.90
1766;DHT22;880;52.452;8.656;2023-12-20T12:58:36;7.20;99.90
1766;DHT22;880;52.452;8.656;2023-12-20T13:01:04;7.20;99.90
1766;DHT22;880;52.452;8.656;2023-12-20T13:03:31;7.20;99.90
1766;DHT22;880;52.452;8.656;2023-12-20T13:05:58;7.30;99.90
1766;DHT22;880;52.452;8.656;2023-12-20T13:08:26;7.30;99.90
1766;DHT22;880;52.452;8.656;2023-12-20T13:10:54;7.30;99.90
1766;DHT22;880;52.452;8.656;2023-12-20T13:13:22;7.20;99.90
1766;DHT22;880;52.452;8.656;2023-12-20T13:15:49;7.20;99.90
1766;DHT22;880;52.452;8.656;2023-12-20T13:18:17;7.30;99.90
1766;DHT22;880;52.452;8.656;2023-12-20T13:20:45;7.30;99.90
1766;DHT22;880;52.452;8.656;2023-12-20T13:23:13;7.30;99.90
1766;DHT22;880;52.452;8.656;2023-12-20T13:25:43;7.30;99.90
1766;DHT22;880;52.452;8.656;2023-12-20T13:28:12;7.30;99.90
1766;DHT22;880;52.452;8.656;2023-12-20T13:30:39;7.30;99.90
1766;DHT22;880;52.452;8.656;2023-12-20T13:33:08;7.20;99.90
1766;DHT22;880;52.452;8.656;2023-12-20T13:35:35;7.30;99.90
1766;DHT22;880;52.452;8.656;2023-12-20T13:38:02;7.30;99.90
1766;DHT22;880;52.452;8.656;2023-12-20T13:40:30;7.20;99.90
1766;DHT22;880;52.452;8.656;2023-12-20T13:42:57;7.20;99.90
1766;DHT22;880;52.452;8.656;2023-12-20T13:45:24;7.20;99.90
1766;DHT22;880;52.452;8.656;2023-12-20T13:47:52;7.20;99.90
1766;DHT22;880;52.452;8.656;2023-12-20T13:50:19;7.20;99.90
1766;DHT22;880;52.452;8.656;2023-12-20T13:52:46;7.20;99.90
1766;DHT22;880;52.452;8.656;2023-12-20T13:55:13;7.10;99.90
1766;DHT22;880;52.452;8.656;2023-12-20T13:57:40;7.10;99.90
1766;DHT22;880;52.452;8.656;2023-12-20T14:00:21;7.10;99.90
1766;DHT22;880;52.452;8.656;2023-12-20T14:02:48;7.10;99.90
1766;DHT22;880;52.452;8.656;2023-12-20T14:05:16;7.10;99.90
1766;DHT22;880;52.452;8.656;2023-12-20T14:07:50;7.10;99.90
1766;DHT22;880;52.452;8.656;2023-12-20T14:10:18;7.10;99.90
1766;DHT22;880;52.452;8.656;2023-12-20T14:12:45;7.10;99.90
1766;DHT22;880;52.452;8.656;2023-12-20T14:15:12;7.10;99.90
1766;DHT22;880;52.452;8.656;2023-12-20T14:17:40;7.20;99.90
1766;DHT22;880;52.452;8.656;2023-12-20T14:20:09;7.10;99.90
1766;DHT22;880;52.452;8.656;2023-12-20T14:22:36;7.20;99.90
1766;DHT22;880;52.452;8.656;2023-12-20T14:25:05;7.10;99.90
1766;DHT22;880;52.452;8.656;2023-12-20T14:27:33;7.10;99.90
1766;DHT22;880;52.452;8.656;2023-12-20T14:30:01;7.10;99.90
1766;DHT22;880;52.452;8.656;2023-12-20T14:32:28;7.10;99.90
1766;DHT22;880;52.452;8.656;2023-12-20T14:34:55;7.10;99.90
1766;DHT22;880;52.452;8.656;2023-12-20T14:37:22;7.10;99.90
1766;DHT22;880;52.452;8.656;2023-12-20T14:39:49;7.10;99.90
1766;DHT22;880;52.452;8.656;2023-12-20T14:42:16;7.10;99.90
1766;DHT22;880;52.452;8.656;2023-12-20T14:44:43;7.10;99.90
1766;DHT22;880;52.452;8.656;2023-12-20T14:47:10;7.10;99.90
1766;DHT22;880;52.452;8.656;2023-12-20T14:49:38;7.10;99.90
1766;DHT22;880;52.452;8.656;2023-12-20T14:52:05;7.00;99.90
1766;DHT22;880;52.452;8.656;2023-12-20T14:54:32;7.00;99.90
1766;DHT22;880;52.452;8.656;2023-12-20T14:56:59;6.90;99.90
1766;DHT22;880;52.452;8.656;2023-12-20T14:59:33;6.90;99.90
1766;DHT22;880;52.452;8.656;2023-12-20T15:02:00;6.90;99.90
1766;DHT22;880;52.452;8.656;2023-12-20T15:04:31;7.00;99.90
1766;DHT22;880;52.452;8.656;2023-12-20T15:06:59;6.90;99.90
1766;DHT22;880;52.452;8.656;2023-12-20T15:09:28;6.80;99.90
1766;DHT22;880;52.452;8.656;2023-12-20T15:11:56;6.70;99.90
1766;DHT22;880;52.452;8.656;2023-12-20T15:14:23;6.60;99.90
1766;DHT22;880;52.452;8.656;2023-12-20T15:16:51;6.60;99.90
1766;DHT22;880;52.452;8.656;2023-12-20T15:19:18;6.50;99.90
1766;DHT22;880;52.452;8.656;2023-12-20T15:21:45;6.40;99.90
1766;DHT22;880;52.452;8.656;2023-12-20T15:24:14;6.40;99.90
1766;DHT22;880;52.452;8.656;2023-12-20T15:26:46;6.40;99.90
1766;DHT22;880;52.452;8.656;2023-12-20T15:29:14;6.40;99.90
1766;DHT22;880;52.452;8.656;2023-12-20T15:31:46;6.30;99.90
1766;DHT22;880;52.452;8.656;2023-12-20T15:34:14;6.30;99.90
1766;DHT22;880;52.452;8.656;2023-12-20T15:36:42;6.20;99.90
1766;DHT22;880;52.452;8.656;2023-12-20T15:39:10;6.10;99.90
1766;DHT22;880;52.452;8.656;2023-12-20T15:41:40;6.10;99.90
1766;DHT22;880;52.452;8.656;2023-12-20T15:44:08;6.10;99.90
1766;DHT22;880;52.452;8.656;2023-12-20T15:46:35;6.10;99.90
1766;DHT22;880;52.452;8.656;2023-12-20T15:49:02;6.00;99.90
1766;DHT22;880;52.452;8.656;2023-12-20T15:51:30;6.00;99.90
1766;DHT22;880;52.452;8.656;2023-12-20T15:53:56;6.00;99.90
1766;DHT22;880;52.452;8.656;2023-12-20T15:56:24;6.00;99.90
1766;DHT22;880;52.452;8.656;2023-12-20T15:58:51;6.00;99.90
1766;DHT22;880;52.452;8.656;2023-12-20T16:01:21;6.00;99.90
1766;DHT22;880;52.452;8.656;2023-12-20T16:03:48;6.00;99.90
1766;DHT22;880;52.452;8.656;2023-12-20T16:06:24;6.00;99.90
1766;DHT22;880;52.452;8.656;2023-12-20T16:08:51;6.00;99.90
1766;DHT22;880;52.452;8.656;2023-12-20T16:11:18;6.10;99.90
1766;DHT22;880;52.452;8.656;2023-12-20T16:13:45;6.00;99.90
1766;DHT22;880;52.452;8.656;2023-12-20T16:16:13;6.00;99.90
1766;DHT22;880;52.452;8.656;2023-12-20T16:18:40;6.00;99.90
1766;DHT22;880;52.452;8.656;2023-12-20T16:21:07;6.10;99.90
1766;DHT22;880;52.452;8.656;2023-12-20T16:23:34;6.00;99.90
1766;DHT22;880;52.452;8.656;2023-12-20T16:26:01;6.00;99.90
1766;DHT22;880;52.452;8.656;2023-12-20T16:28:28;5.90;99.90
1766;DHT22;880;52.452;8.656;2023-12-20T16:30:56;5.90;99.90
1766;DHT22;880;52.452;8.656;2023-12-20T16:33:23;5.90;99.90
1766;DHT22;880;52.452;8.656;2023-12-20T16:35:51;5.90;99.90
1766;DHT22;880;52.452;8.656;2023-12-20T16:38:18;5.90;99.90
1766;DHT22;880;52.452;8.656;2023-12-20T16:40:46;5.90;99.90
1766;DHT22;880;52.452;8.656;2023-12-20T16:43:13;5.90;99.90
1766;DHT22;880;52.452;8.656;2023-12-20T16:45:40;5.90;99.90